Time;durP1;ratioP1;P1;durP2;ratioP2;P2;SDS_P1;SDS_P2;PMS_P1;PMS_P2;Temp;Humidity;BMP_temperature;BMP_pressure;BME280_temperature;BME280_humidity;BME280_pressure;Samples;Min_cycle;Max_cycle;Signal;HPM_P1;HPM_P2
2023/12/31 00:00:51;;;;;;;14.70;6.80;;;;;;;6.27;73.46;100038.27;135231;1252;108501;-84
2023/12/31 00:04:16;;;;;;;12.80;6.50;;;;;;;6.24;73.81;100033.90;135201;1253;109056;-84
2023/12/31 00:07:22;;;;;;;11.20;5.90;;;;;;;6.20;73.88;100031.92;135203;1252;108724;-84
2023/12/31 00:10:28;;;;;;;16.60;7.40;;;;;;;6.18;74.16;100030.20;135155;1253;107639;-84
2023/12/31 00:13:33;;;;;;;12.10;5.00;;;;;;;6.20;73.99;100027.91;135247;1253;108004;-85
2023/12/31 00:16:39;;;;;;;11.50;5.10;;;;;;;6.23;74.13;100023.95;135197;1253;108494;-86
2023/12/31 00:19:44;;;;;;;24.00;10.10;;;;;;;6.35;73.94;100022.43;135224;1252;107598;-85
2023/12/31 00:22:50;;;;;;;20.80;9.30;;;;;;;6.44;74.15;100016.55;135236;1252;106181;-85
2023/12/31 00:25:56;;;;;;;13.60;6.20;;;;;;;6.52;73.95;100018.45;135196;1253;107075;-85
2023/12/31 00:29:01;;;;;;;13.70;6.60;;;;;;;6.61;73.96;100018.91;135228;1253;108629;-85
2023/12/31 00:32:08;;;;;;;14.30;6.10;;;;;;;6.67;74.00;100022.48;135213;1252;108627;-85
2023/12/31 00:35:14;;;;;;;18.60;9.60;;;;;;;6.71;73.97;100023.36;135250;1252;106392;-86
2023/12/31 00:38:20;;;;;;;34.50;17.10;;;;;;;6.75;74.08;100028.04;135287;1253;106487;-84
2023/12/31 00:41:26;;;;;;;34.10;18.20;;;;;;;6.77;74.04;100027.15;135241;1253;107518;-85
2023/12/31 00:44:31;;;;;;;26.40;13.40;;;;;;;6.77;73.84;100029.05;135267;1253;107900;-85
2023/12/31 00:47:37;;;;;;;18.10;8.70;;;;;;;6.77;73.71;100030.10;135210;1252;107569;-85
2023/12/31 00:50:42;;;;;;;15.00;7.70;;;;;;;6.76;74.01;100034.05;135200;1253;108620;-85
2023/12/31 00:53:48;;;;;;;14.40;6.80;;;;;;;6.77;73.78;100034.01;135262;1253;108373;-86
2023/12/31 00:56:54;;;;;;;11.60;4.90;;;;;;;6.77;73.82;100037.14;135298;1252;107614;-86
2023/12/31 01:00:00;;;;;;;8.20;4.80;;;;;;;6.75;73.98;100038.41;135229;1252;107635;-86
2023/12/31 01:03:06;;;;;;;11.90;6.50;;;;;;;6.73;73.99;100036.65;135263;1253;107714;-86
2023/12/31 01:06:11;;;;;;;11.40;5.20;;;;;;;6.71;74.18;100036.99;135180;1252;108621;-85
2023/12/31 01:09:17;;;;;;;11.80;5.20;;;;;;;6.68;74.06;100033.84;135079;1253;108641;-85
2023/12/31 01:12:23;;;;;;;12.20;5.70;;;;;;;6.70;73.86;100033.15;135170;1253;108494;-85
2023/12/31 01:15:28;;;;;;;14.10;6.80;;;;;;;6.73;73.98;100031.15;135215;1253;107697;-84
2023/12/31 01:18:34;;;;;;;13.00;7.50;;;;;;;6.76;73.91;100033.37;135254;1252;108706;-85
2023/12/31 01:21:39;;;;;;;12.90;7.30;;;;;;;6.79;73.86;100035.28;135239;1252;108344;-84
2023/12/31 01:24:45;;;;;;;13.40;7.70;;;;;;;6.79;73.74;100037.23;135245;1253;107824;-84
2023/12/31 01:27:53;;;;;;;11.50;6.20;;;;;;;6.76;73.97;100034.77;135170;1252;109257;-85
2023/12/31 01:30:59;;;;;;;11.90;5.60;;;;;;;6.71;73.68;100031.87;135231;1253;107659;-84
2023/12/31 01:34:05;;;;;;;12.00;5.30;;;;;;;6.64;73.55;100033.66;135215;1252;106576;-85
2023/12/31 01:37:11;;;;;;;8.10;4.80;;;;;;;6.56;73.62;100033.88;135257;1252;108403;-85
2023/12/31 01:40:16;;;;;;;11.10;6.20;;;;;;;6.46;74.00;100037.02;135228;1253;106766;-85
2023/12/31 01:43:23;;;;;;;11.70;5.40;;;;;;;6.36;73.81;100037.67;135175;1252;106345;-85
2023/12/31 01:46:31;;;;;;;12.00;6.40;;;;;;;6.28;73.93;100036.77;135235;1253;107665;-84
2023/12/31 01:49:37;;;;;;;10.40;5.70;;;;;;;6.17;73.68;100037.34;135209;1252;108530;-84
2023/12/31 01:52:44;;;;;;;11.90;6.00;;;;;;;6.06;73.55;100038.98;135226;1253;108726;-85
2023/12/31 01:55:50;;;;;;;13.30;6.20;;;;;;;5.97;73.67;100037.14;135298;1253;108560;-84
2023/12/31 01:58:57;;;;;;;13.00;6.50;;;;;;;5.86;73.60;100040.30;135249;1253;106703;-84
2023/12/31 02:02:02;;;;;;;9.70;5.60;;;;;;;5.73;73.66;100046.13;135214;1253;108442;-85
2023/12/31 02:05:08;;;;;;;14.70;7.10;;;;;;;5.59;73.51;100046.39;135201;1252;108467;-85
2023/12/31 02:08:14;;;;;;;14.20;7.90;;;;;;;5.45;73.80;100053.88;135210;1253;107585;-84
2023/12/31 02:11:20;;;;;;;14.30;7.10;;;;;;;5.33;73.81;100052.20;135282;1253;107600;-84
2023/12/31 02:14:26;;;;;;;10.40;6.10;;;;;;;5.23;73.59;100051.61;135264;1252;106619;-85
2023/12/31 02:17:31;;;;;;;12.70;6.30;;;;;;;5.16;73.90;100050.10;135124;1252;107700;-84
2023/12/31 02:20:37;;;;;;;16.10;7.70;;;;;;;5.11;73.72;100052.92;135216;1253;106735;-84
2023/12/31 02:23:43;;;;;;;17.10;8.50;;;;;;;5.08;73.94;100054.02;135229;1253;106164;-83
2023/12/31 02:26:49;;;;;;;16.30;8.90;;;;;;;5.07;73.94;100052.52;135206;1252;108577;-84
2023/12/31 02:30:00;;;;;;;16.60;9.00;;;;;;;5.03;73.99;100057.39;135280;1253;107930;-84
2023/12/31 02:33:06;;;;;;;16.70;8.40;;;;;;;5.02;73.94;100056.63;135198;1252;107709;-84
2023/12/31 02:36:12;;;;;;;18.20;9.10;;;;;;;5.00;73.87;100057.65;135162;1253;107008;-85
2023/12/31 02:39:17;;;;;;;17.20;9.10;;;;;;;4.98;73.94;100063.77;135103;1252;106355;-85
2023/12/31 02:42:23;;;;;;;15.70;8.70;;;;;;;4.99;74.08;100070.78;135230;1253;107677;-84
2023/12/31 02:45:29;;;;;;;18.40;10.30;;;;;;;5.03;74.10;100073.69;135227;1253;108426;-84
2023/12/31 02:48:35;;;;;;;18.50;9.60;;;;;;;5.04;74.61;100071.45;135240;1253;108512;-85
2023/12/31 02:51:40;;;;;;;22.40;10.20;;;;;;;5.02;74.56;100077.75;135265;1253;107566;-84
2023/12/31 02:54:46;;;;;;;19.50;9.70;;;;;;;5.03;74.22;100085.09;135228;1252;106457;-84
2023/12/31 02:57:52;;;;;;;17.50;9.60;;;;;;;5.00;74.37;100087.59;135262;1252;108756;-85
2023/12/31 03:00:57;;;;;;;19.10;8.70;;;;;;;4.96;74.45;100095.52;135119;1253;107630;-85
2023/12/31 03:04:03;;;;;;;17.60;8.80;;;;;;;4.94;74.52;100092.88;135174;1253;108403;-85
2023/12/31 03:07:08;;;;;;;16.80;8.80;;;;;;;4.94;74.61;100097.14;135182;1253;108520;-84
2023/12/31 03:10:14;;;;;;;15.70;8.60;;;;;;;4.96;74.61;100091.15;135234;1253;107667;-84
2023/12/31 03:13:20;;;;;;;16.40;9.10;;;;;;;5.01;74.58;100089.17;135275;1253;107733;-84
2023/12/31 03:16:25;;;;;;;18.10;9.10;;;;;;;5.06;74.63;100089.95;135243;1253;108679;-85
2023/12/31 03:19:35;;;;;;;16.70;9.30;;;;;;;5.13;74.51;100093.33;135247;1252;108639;-84
2023/12/31 03:22:40;;;;;;;14.50;8.40;;;;;;;5.17;74.53;100097.09;135289;1252;106492;-84
2023/12/31 03:25:46;;;;;;;17.60;9.70;;;;;;;5.17;74.48;100092.83;135199;1254;106608;-84
2023/12/31 03:28:52;;;;;;;16.50;9.00;;;;;;;5.15;74.56;100090.90;135151;1252;107653;-85
2023/12/31 03:31:57;;;;;;;15.90;8.80;;;;;;;5.14;74.46;100090.23;135101;1254;108693;-85
2023/12/31 03:35:03;;;;;;;16.60;9.20;;;;;;;5.15;74.50;100097.27;135210;1253;107207;-85
2023/12/31 03:38:09;;;;;;;16.00;8.80;;;;;;;5.13;74.61;100097.21;135225;1252;106546;-85
2023/12/31 03:41:15;;;;;;;16.30;9.70;;;;;;;5.11;74.62;100096.25;135202;1253;106257;-85
2023/12/31 03:44:20;;;;;;;15.20;9.10;;;;;;;5.13;74.59;100101.84;135279;1253;108401;-86
2023/12/31 03:47:26;;;;;;;16.60;9.00;;;;;;;5.12;74.79;100104.16;135243;1253;107577;-85
2023/12/31 03:50:32;;;;;;;15.00;8.20;;;;;;;5.11;74.69;100105.30;135165;1252;107375;-85
2023/12/31 03:53:37;;;;;;;16.60;8.30;;;;;;;5.10;74.72;100100.81;135140;1254;106235;-86
2023/12/31 03:56:43;;;;;;;16.40;8.60;;;;;;;5.10;74.65;100104.65;135143;1253;108061;-85
2023/12/31 03:59:48;;;;;;;18.30;8.50;;;;;;;5.12;74.58;100107.36;135203;1252;106403;-85
2023/12/31 04:02:54;;;;;;;16.70;8.60;;;;;;;5.13;74.78;100096.30;135200;1255;106618;-84
2023/12/31 04:06:00;;;;;;;15.90;9.00;;;;;;;5.15;74.62;100097.23;135239;1252;108138;-84
2023/12/31 04:09:06;;;;;;;17.00;8.90;;;;;;;5.14;74.68;100092.77;135263;1253;107539;-84
2023/12/31 04:12:12;;;;;;;17.60;9.20;;;;;;;5.10;74.37;100093.20;135088;1253;108593;-84
2023/12/31 04:15:17;;;;;;;15.80;9.10;;;;;;;5.04;74.33;100088.70;135062;1254;107773;-84
2023/12/31 04:18:23;;;;;;;17.00;9.00;;;;;;;4.98;74.53;100094.70;135117;1253;107755;-84
2023/12/31 04:21:28;;;;;;;16.60;9.30;;;;;;;4.90;74.40;100097.05;135240;1253;107747;-84
2023/12/31 04:24:34;;;;;;;15.30;8.70;;;;;;;4.81;74.17;100098.30;135231;1253;107461;-84
2023/12/31 04:27:41;;;;;;;16.90;8.80;;;;;;;4.68;74.15;100101.40;135253;1253;108711;-84
2023/12/31 04:30:49;;;;;;;16.50;8.60;;;;;;;4.54;74.01;100097.38;135054;1253;107421;-84
2023/12/31 04:33:54;;;;;;;16.80;9.80;;;;;;;4.41;73.99;100094.19;135228;1253;107779;-84
2023/12/31 04:37:00;;;;;;;17.10;9.20;;;;;;;4.30;74.02;100089.55;135321;1253;106591;-83
2023/12/31 04:40:07;;;;;;;17.30;8.90;;;;;;;4.17;73.82;100088.23;135270;1252;106772;-84
2023/12/31 04:43:13;;;;;;;16.40;8.90;;;;;;;4.05;73.85;100090.91;135224;1254;107943;-84
2023/12/31 04:46:20;;;;;;;15.90;8.70;;;;;;;3.90;73.72;100093.23;135274;1253;107775;-83
2023/12/31 04:49:26;;;;;;;16.30;8.90;;;;;;;3.82;73.69;100092.80;135127;1254;108757;-83
2023/12/31 04:52:31;;;;;;;16.30;9.50;;;;;;;3.74;73.67;100100.80;135235;1253;106494;-83
2023/12/31 04:55:38;;;;;;;18.40;9.30;;;;;;;3.63;73.65;100103.49;135096;1253;108694;-83
2023/12/31 04:58:43;;;;;;;15.50;9.20;;;;;;;3.54;73.64;100106.61;135286;1253;106706;-83
2023/12/31 05:01:52;;;;;;;22.10;11.10;;;;;;;3.46;73.71;100107.54;135296;1253;108702;-84
2023/12/31 05:04:58;;;;;;;17.50;9.70;;;;;;;3.39;73.83;100108.23;135187;1253;105529;-84
2023/12/31 05:08:04;;;;;;;19.40;10.40;;;;;;;3.34;74.02;100101.70;135266;1252;107556;-83
2023/12/31 05:11:11;;;;;;;16.50;8.70;;;;;;;3.32;73.80;100099.95;135241;1254;107935;-83
2023/12/31 05:14:16;;;;;;;14.40;8.10;;;;;;;3.30;73.92;100095.83;135191;1254;107616;-84
2023/12/31 05:17:22;;;;;;;16.20;9.10;;;;;;;3.32;73.54;100087.45;135195;1252;108778;-83
2023/12/31 05:20:27;;;;;;;17.00;9.10;;;;;;;3.32;73.49;100090.45;135175;1253;106987;-84
2023/12/31 05:23:33;;;;;;;17.70;9.20;;;;;;;3.30;73.57;100087.05;135189;1252;108708;-84
2023/12/31 05:26:39;;;;;;;16.80;9.20;;;;;;;3.27;73.32;100091.52;135288;1253;108510;-84
2023/12/31 05:29:44;;;;;;;19.30;10.20;;;;;;;3.22;73.28;100090.82;135265;1254;108537;-84
2023/12/31 05:32:50;;;;;;;18.50;9.80;;;;;;;3.13;73.23;100091.08;135291;1252;106519;-84
2023/12/31 05:35:55;;;;;;;18.40;10.20;;;;;;;3.05;73.45;100089.91;135215;1254;109415;-85
2023/12/31 05:39:01;;;;;;;21.00;9.80;;;;;;;3.00;73.46;100091.70;135244;1253;107752;-84
2023/12/31 05:42:07;;;;;;;15.70;9.00;;;;;;;2.95;73.57;100090.92;135187;1254;106168;-83
2023/12/31 05:45:13;;;;;;;17.10;9.40;;;;;;;2.89;73.47;100092.45;135196;1254;108782;-84
2023/12/31 05:48:18;;;;;;;17.90;9.70;;;;;;;2.81;73.07;100088.80;135236;1253;107589;-83
2023/12/31 05:51:24;;;;;;;17.10;9.40;;;;;;;2.71;73.18;100091.95;135248;1253;108662;-84
2023/12/31 05:54:29;;;;;;;19.40;10.00;;;;;;;2.65;73.31;100085.50;135266;1252;108293;-84
2023/12/31 05:57:35;;;;;;;19.00;10.20;;;;;;;2.64;73.33;100088.03;135273;1252;105572;-84
2023/12/31 06:00:41;;;;;;;20.20;10.20;;;;;;;2.61;73.35;100087.55;135267;1253;106627;-85
2023/12/31 06:03:46;;;;;;;14.60;9.70;;;;;;;2.56;73.40;100091.02;135200;1254;107532;-82
2023/12/31 06:06:52;;;;;;;18.10;9.40;;;;;;;2.51;73.27;100090.52;135164;1253;107612;-84
2023/12/31 06:09:57;;;;;;;17.10;10.30;;;;;;;2.46;73.21;100089.30;135189;1252;107629;-84
2023/12/31 06:13:03;;;;;;;24.80;11.50;;;;;;;2.44;73.56;100085.73;135206;1253;107688;-83
2023/12/31 06:16:09;;;;;;;27.00;14.00;;;;;;;2.48;73.62;100087.41;135207;1252;108400;-83
2023/12/31 06:19:14;;;;;;;41.30;18.50;;;;;;;2.45;73.64;100085.48;135246;1252;106378;-83
2023/12/31 06:22:20;;;;;;;31.80;16.20;;;;;;;2.40;73.60;100084.08;135278;1252;108916;-83
2023/12/31 06:25:26;;;;;;;28.00;13.90;;;;;;;2.42;73.51;100090.40;135233;1253;106900;-82
2023/12/31 06:28:32;;;;;;;42.20;14.80;;;;;;;2.46;73.60;100093.14;135211;1252;108298;-83
2023/12/31 06:31:37;;;;;;;100.50;27.40;;;;;;;2.52;73.44;100085.52;135154;1253;107849;-84
2023/12/31 06:34:43;;;;;;;64.30;21.10;;;;;;;2.60;73.64;100082.16;135136;1253;106702;-81
2023/12/31 06:37:49;;;;;;;30.00;12.70;;;;;;;2.65;73.33;100085.84;135191;1252;108439;-80
2023/12/31 06:40:54;;;;;;;36.20;16.10;;;;;;;2.68;73.56;100084.23;135252;1253;108572;-80
2023/12/31 06:44:00;;;;;;;33.00;15.40;;;;;;;2.68;73.51;100083.71;135298;1252;106998;-80
2023/12/31 06:47:06;;;;;;;24.60;13.10;;;;;;;2.65;73.65;100080.59;135246;1252;107381;-79
2023/12/31 06:50:12;;;;;;;28.50;14.70;;;;;;;2.64;73.61;100081.00;135217;1251;107702;-79
2023/12/31 06:53:17;;;;;;;40.10;18.00;;;;;;;2.64;73.48;100076.83;135234;1251;106924;-78
2023/12/31 06:56:23;;;;;;;49.30;19.40;;;;;;;2.61;73.54;100081.40;135238;1252;108102;-79
2023/12/31 06:59:29;;;;;;;42.70;17.80;;;;;;;2.56;73.78;100083.30;135227;1253;107559;-78
2023/12/31 07:02:34;;;;;;;42.60;17.10;;;;;;;2.54;73.58;100087.29;135248;1252;106554;-79
2023/12/31 07:05:40;;;;;;;72.50;26.10;;;;;;;2.53;73.65;100083.02;135272;1251;107816;-79
2023/12/31 07:08:45;;;;;;;45.10;20.20;;;;;;;2.54;73.60;100085.36;135331;1251;106545;-80
2023/12/31 07:11:51;;;;;;;45.40;19.70;;;;;;;2.53;73.63;100087.72;135232;1252;106960;-79
2023/12/31 07:14:56;;;;;;;64.70;26.80;;;;;;;2.54;73.73;100085.92;135192;1252;108741;-79
2023/12/31 07:18:02;;;;;;;40.20;17.10;;;;;;;2.54;73.80;100086.92;135288;1251;108471;-79
2023/12/31 07:21:08;;;;;;;27.20;12.80;;;;;;;2.54;73.82;100081.33;135328;1251;107482;-79
2023/12/31 07:24:14;;;;;;;29.00;13.10;;;;;;;2.58;74.10;100077.05;135330;1251;106660;-79
2023/12/31 07:27:19;;;;;;;21.70;11.30;;;;;;;2.62;73.94;100072.00;135323;1251;107585;-79
2023/12/31 07:30:25;;;;;;;17.90;10.00;;;;;;;2.69;74.06;100069.25;135400;1251;108595;-79
2023/12/31 07:33:30;;;;;;;20.30;10.50;;;;;;;2.76;74.21;100070.32;135293;1252;108637;-78
2023/12/31 07:36:36;;;;;;;24.20;14.10;;;;;;;2.88;74.10;100065.13;135240;1251;108374;-79
2023/12/31 07:39:43;;;;;;;27.50;14.00;;;;;;;2.94;73.96;100065.38;135206;1251;106399;-79
2023/12/31 07:42:50;;;;;;;29.60;15.30;;;;;;;2.98;73.80;100063.89;135232;1253;106605;-78
2023/12/31 07:45:56;;;;;;;30.90;16.70;;;;;;;3.00;73.93;100065.11;135286;1252;107683;-79
2023/12/31 07:49:01;;;;;;;29.00;15.30;;;;;;;3.03;73.98;100060.86;135289;1251;108692;-78
2023/12/31 07:52:08;;;;;;;24.30;13.00;;;;;;;3.07;74.05;100060.40;135207;1251;108691;-79
2023/12/31 07:55:13;;;;;;;31.80;17.00;;;;;;;3.11;73.92;100060.85;135260;1253;106741;-79
2023/12/31 07:58:24;;;;;;;24.10;13.20;;;;;;;3.14;74.09;100059.02;135238;1252;107813;-79
2023/12/31 08:01:31;;;;;;;23.00;13.00;;;;;;;3.16;74.15;100063.64;135262;1253;106930;-78
2023/12/31 08:04:36;;;;;;;31.40;17.70;;;;;;;3.19;74.36;100064.13;135133;1252;106618;-79
2023/12/31 08:07:42;;;;;;;23.40;14.80;;;;;;;3.21;74.69;100058.38;135088;1252;106771;-77
2023/12/31 08:10:52;;;;;;;46.70;25.70;;;;;;;3.24;75.02;100067.13;135241;1251;109912;-78
2023/12/31 08:13:59;;;;;;;44.10;23.90;;;;;;;3.28;75.21;100062.97;135036;1253;107913;-78
2023/12/31 08:17:04;;;;;;;99.10;38.30;;;;;;;3.34;75.25;100061.60;135249;1252;106365;-81
2023/12/31 08:20:11;;;;;;;107.80;37.00;;;;;;;3.44;75.55;100055.23;135272;1252;107569;-79
2023/12/31 08:23:18;;;;;;;130.90;39.70;;;;;;;3.60;75.64;100053.38;135230;1252;108403;-82
2023/12/31 08:26:25;;;;;;;324.60;87.30;;;;;;;3.77;75.74;100053.52;135254;1252;106644;-83
2023/12/31 08:29:30;;;;;;;80.80;29.10;;;;;;;3.91;75.62;100053.19;135237;1252;107630;-83
2023/12/31 08:32:36;;;;;;;34.90;17.50;;;;;;;4.03;75.69;100059.20;135227;1252;108552;-84
2023/12/31 08:35:42;;;;;;;29.90;15.20;;;;;;;4.13;75.80;100057.23;135188;1251;107686;-84
2023/12/31 08:38:47;;;;;;;32.40;20.10;;;;;;;4.19;75.88;100058.48;135215;1252;106498;-83
2023/12/31 08:41:53;;;;;;;30.30;18.70;;;;;;;4.26;75.87;100061.86;135234;1252;107394;-83
2023/12/31 08:45:03;;;;;;;43.00;22.90;;;;;;;4.32;76.04;100057.34;135268;1252;106368;-84
2023/12/31 08:48:10;;;;;;;57.60;27.20;;;;;;;4.37;76.11;100056.23;135276;1252;107538;-84
2023/12/31 08:51:15;;;;;;;45.30;22.20;;;;;;;4.43;76.18;100051.23;135236;1252;108201;-84
2023/12/31 08:54:21;;;;;;;36.40;19.50;;;;;;;4.46;76.36;100056.27;135241;1252;106264;-83
2023/12/31 08:57:27;;;;;;;64.90;29.80;;;;;;;4.49;76.31;100055.88;135279;1251;106960;-83
2023/12/31 09:00:35;;;;;;;62.30;28.90;;;;;;;4.51;76.55;100059.76;135344;1250;108581;-84
2023/12/31 09:03:40;;;;;;;56.50;25.50;;;;;;;4.53;76.49;100053.03;135170;1252;106613;-83
2023/12/31 09:06:46;;;;;;;46.10;23.20;;;;;;;4.56;76.69;100047.05;135200;1252;106849;-87
2023/12/31 09:09:51;;;;;;;91.00;39.60;;;;;;;4.61;76.76;100042.75;135214;1251;106426;-83
2023/12/31 09:12:59;;;;;;;48.40;23.90;;;;;;;4.68;76.75;100042.71;135091;1252;107698;-84
2023/12/31 09:16:05;;;;;;;42.20;22.20;;;;;;;4.78;76.68;100037.41;135265;1252;106466;-84
2023/12/31 09:19:10;;;;;;;41.80;22.60;;;;;;;4.86;76.94;100039.95;135272;1252;106604;-81
2023/12/31 09:22:16;;;;;;;53.80;28.20;;;;;;;4.94;76.80;100036.33;135274;1251;106870;-87
2023/12/31 09:25:22;;;;;;;37.30;19.90;;;;;;;4.97;76.75;100034.48;135318;1250;107501;-86
2023/12/31 09:28:28;;;;;;;36.30;20.30;;;;;;;4.99;76.83;100027.97;135215;1251;108386;-83
2023/12/31 09:31:34;;;;;;;54.10;30.00;;;;;;;5.00;76.89;100025.59;135202;1252;107591;-86
2023/12/31 09:34:39;;;;;;;44.00;28.10;;;;;;;5.06;77.09;100015.91;135166;1252;107882;-86
2023/12/31 09:37:45;;;;;;;39.40;23.70;;;;;;;5.14;76.95;100010.91;135290;1251;109070;-85
2023/12/31 09:40:51;;;;;;;30.90;19.80;;;;;;;5.19;77.04;100007.73;135419;1251;107795;-84
2023/12/31 09:43:57;;;;;;;26.90;16.10;;;;;;;5.19;76.99;100009.98;135186;1253;106687;-82
2023/12/31 09:47:07;;;;;;;26.90;16.10;;;;;;;5.22;77.27;100008.11;135160;1253;108634;-85
2023/12/31 09:50:13;;;;;;;30.40;17.80;;;;;;;5.32;77.35;100005.92;135229;1253;107665;-83
2023/12/31 09:53:20;;;;;;;31.50;17.80;;;;;;;5.44;77.18;100002.83;135288;1252;108519;-84
2023/12/31 09:56:28;;;;;;;30.50;17.30;;;;;;;5.55;77.25;99993.82;135249;1252;107829;-86
2023/12/31 09:59:35;;;;;;;28.10;17.00;;;;;;;5.62;76.94;99984.17;135133;1252;108523;-84
2023/12/31 10:02:40;;;;;;;26.90;16.50;;;;;;;5.68;77.24;99976.95;135154;1252;107598;-83
2023/12/31 10:05:50;;;;;;;29.40;17.20;;;;;;;5.69;77.18;99978.79;135250;1252;108334;-83
2023/12/31 10:08:58;;;;;;;26.10;17.00;;;;;;;5.72;77.20;99973.83;135045;1252;108693;-82
2023/12/31 10:12:04;;;;;;;31.50;18.10;;;;;;;5.77;77.28;99970.94;135216;1252;107795;-84
2023/12/31 10:15:10;;;;;;;29.00;18.00;;;;;;;5.80;76.90;99971.95;135217;1253;105681;-82
2023/12/31 10:18:16;;;;;;;29.00;17.60;;;;;;;5.78;77.35;99969.27;135244;1251;108656;-81
2023/12/31 10:21:21;;;;;;;28.20;17.60;;;;;;;5.78;77.22;99965.93;135178;1252;108604;-82
2023/12/31 10:24:29;;;;;;;36.10;21.40;;;;;;;5.80;76.98;99963.98;135174;1252;109481;-79
2023/12/31 10:27:35;;;;;;;33.30;17.20;;;;;;;5.82;77.19;99961.37;135259;1252;107074;-80
2023/12/31 10:30:41;;;;;;;26.90;16.30;;;;;;;5.87;77.24;99950.66;135213;1252;107852;-80
2023/12/31 10:33:46;;;;;;;31.80;18.00;;;;;;;5.94;77.34;99950.66;134983;1252;251586;-80
2023/12/31 10:37:03;;;;;;;32.30;19.50;;;;;;;6.03;77.18;99947.57;135075;1253;106606;-80
2023/12/31 10:40:23;;;;;;;35.40;20.10;;;;;;;6.16;77.33;99943.00;135216;1252;107581;-77
2023/12/31 10:43:28;;;;;;;28.80;18.50;;;;;;;6.24;77.21;99938.55;135196;1252;108735;-82
2023/12/31 10:46:36;;;;;;;30.40;16.80;;;;;;;6.30;77.10;99934.14;135280;1251;105760;-83
2023/12/31 10:49:46;;;;;;;28.90;16.30;;;;;;;6.36;77.10;99928.02;135164;1252;107602;-82
2023/12/31 10:52:55;;;;;;;28.70;17.40;;;;;;;6.39;77.23;99925.27;135130;1252;106585;-84
2023/12/31 10:56:01;;;;;;;25.30;15.20;;;;;;;6.42;77.25;99926.59;135197;1252;107711;-84
2023/12/31 10:59:07;;;;;;;23.80;14.80;;;;;;;6.47;77.35;99916.96;135111;1252;106336;-82
2023/12/31 11:02:17;;;;;;;27.10;16.20;;;;;;;6.51;77.40;99915.23;135107;1252;106687;-82
2023/12/31 11:05:24;;;;;;;28.50;18.30;;;;;;;6.54;77.29;99913.71;135146;1252;108681;-83
2023/12/31 11:08:31;;;;;;;24.90;15.20;;;;;;;6.55;77.73;99914.30;135234;1252;106581;-82
2023/12/31 11:11:38;;;;;;;21.70;13.10;;;;;;;6.60;77.29;99908.41;135147;1251;107915;-84
2023/12/31 11:14:48;;;;;;;31.70;20.10;;;;;;;6.66;77.29;99904.66;135167;1251;106769;-80
2023/12/31 11:18:13;;;;;;;27.70;16.20;;;;;;;6.73;77.13;99904.77;135127;1253;106287;-80
2023/12/31 11:21:35;;;;;;;30.40;18.70;;;;;;;6.81;77.27;99901.05;135171;1251;108829;-81
2023/12/31 11:24:40;;;;;;;28.40;16.50;;;;;;;6.86;77.21;99897.05;135263;1251;107563;-80
2023/12/31 11:27:46;;;;;;;25.70;15.70;;;;;;;6.90;77.12;99895.61;135227;1251;108454;-81
2023/12/31 11:30:53;;;;;;;23.60;15.00;;;;;;;6.92;77.31;99891.23;135227;1251;107829;-80
2023/12/31 11:34:01;;;;;;;24.40;14.80;;;;;;;6.93;77.34;99890.25;135206;1252;106653;-79
2023/12/31 11:37:08;;;;;;;22.60;13.60;;;;;;;6.93;77.13;99887.77;135257;1251;107456;-80
2023/12/31 11:40:15;;;;;;;26.30;15.00;;;;;;;6.93;77.20;99879.14;135120;1252;107235;-81
2023/12/31 11:43:24;;;;;;;27.30;15.80;;;;;;;6.95;77.14;99877.48;135186;1251;107042;-79
2023/12/31 11:46:38;;;;;;;22.50;14.20;;;;;;;6.97;77.38;99876.13;135332;1251;109477;-80
2023/12/31 11:49:47;;;;;;;24.60;15.10;;;;;;;6.96;77.41;99868.95;135346;1251;107630;-80
2023/12/31 11:52:54;;;;;;;31.60;18.60;;;;;;;6.95;77.52;99860.54;135164;1252;108840;-79
2023/12/31 11:56:00;;;;;;;37.60;19.20;;;;;;;6.93;77.25;99856.84;135338;1251;108144;-79
2023/12/31 11:59:07;;;;;;;24.20;14.40;;;;;;;6.93;77.40;99855.39;135221;1252;108383;-79
2023/12/31 12:02:12;;;;;;;28.40;16.70;;;;;;;6.95;77.38;99849.02;135179;1253;106889;-80
2023/12/31 12:05:18;;;;;;;25.60;15.50;;;;;;;7.02;77.41;99844.68;135161;1252;107848;-82
2023/12/31 12:08:24;;;;;;;28.70;17.10;;;;;;;7.09;77.23;99847.02;135234;1252;106463;-81
2023/12/31 12:11:30;;;;;;;28.30;17.80;;;;;;;7.14;77.13;99840.80;135254;1253;107615;-80
2023/12/31 12:14:35;;;;;;;31.00;17.70;;;;;;;7.16;77.25;99839.86;135185;1252;107941;-82
2023/12/31 12:17:41;;;;;;;31.70;18.60;;;;;;;7.16;77.21;99838.98;135220;1252;108651;-83
2023/12/31 12:20:47;;;;;;;29.40;17.40;;;;;;;7.15;77.28;99837.35;135218;1251;107586;-80
2023/12/31 12:23:54;;;;;;;30.00;18.00;;;;;;;7.12;77.40;99838.65;135235;1252;109109;-80
2023/12/31 12:27:01;;;;;;;35.00;22.40;;;;;;;7.10;77.29;99833.70;135203;1252;108795;-79
2023/12/31 12:30:09;;;;;;;36.00;22.50;;;;;;;7.05;77.27;99827.82;135205;1251;108676;-80
2023/12/31 12:33:15;;;;;;;34.90;21.80;;;;;;;7.00;77.27;99821.15;135229;1252;107781;-81
2023/12/31 12:36:22;;;;;;;30.30;18.90;;;;;;;6.94;77.37;99820.12;135165;1252;108688;-81
2023/12/31 12:39:27;;;;;;;32.20;19.60;;;;;;;6.89;77.61;99818.84;135097;1252;109537;-81
2023/12/31 12:42:34;;;;;;;36.40;21.50;;;;;;;6.85;77.26;99820.58;135174;1251;107015;-82
2023/12/31 12:45:39;;;;;;;33.20;20.10;;;;;;;6.82;77.43;99820.70;135204;1252;106753;-81
2023/12/31 12:48:51;;;;;;;39.50;23.60;;;;;;;6.82;77.51;99816.80;135271;1252;106887;-81
2023/12/31 12:51:57;;;;;;;39.10;24.70;;;;;;;6.83;77.58;99817.02;135165;1252;106800;-81
2023/12/31 12:55:06;;;;;;;35.70;23.20;;;;;;;6.86;77.55;99809.92;135236;1252;108651;-81
2023/12/31 12:58:12;;;;;;;34.20;20.60;;;;;;;6.88;77.74;99809.17;135045;1252;108223;-80
2023/12/31 13:01:18;;;;;;;47.60;25.30;;;;;;;6.89;77.47;99804.88;135249;1251;106411;-80
2023/12/31 13:04:24;;;;;;;35.80;20.20;;;;;;;6.85;77.32;99804.67;135271;1250;107661;-80
2023/12/31 13:07:29;;;;;;;31.70;18.30;;;;;;;6.82;77.64;99803.52;135299;1252;108263;-81
2023/12/31 13:10:35;;;;;;;35.90;17.70;;;;;;;6.79;77.52;99797.59;135277;1252;109050;-81
2023/12/31 13:13:41;;;;;;;45.90;21.80;;;;;;;6.75;77.19;99796.42;135202;1252;106859;-80
2023/12/31 13:16:47;;;;;;;35.70;20.20;;;;;;;6.71;77.74;99792.72;135145;1252;108384;-80
2023/12/31 13:19:54;;;;;;;37.40;19.30;;;;;;;6.68;77.67;99789.61;135193;1252;107823;-81
2023/12/31 13:23:00;;;;;;;29.50;14.40;;;;;;;6.65;77.90;99780.70;135234;1252;107989;-81
2023/12/31 13:26:06;;;;;;;33.50;17.80;;;;;;;6.63;77.82;99774.14;135189;1252;107748;-80
2023/12/31 13:29:12;;;;;;;32.80;18.70;;;;;;;6.63;77.98;99770.05;135146;1252;108622;-80
2023/12/31 13:32:18;;;;;;;31.90;19.20;;;;;;;6.65;77.87;99760.56;135189;1252;107769;-80
2023/12/31 13:35:24;;;;;;;50.80;25.30;;;;;;;6.69;77.86;99765.50;135192;1252;107788;-80
2023/12/31 13:38:30;;;;;;;50.30;26.80;;;;;;;6.69;77.81;99763.81;135391;1251;106808;-81
2023/12/31 13:41:35;;;;;;;36.70;19.80;;;;;;;6.69;77.58;99763.73;135401;1251;107817;-80
2023/12/31 13:44:41;;;;;;;30.70;16.40;;;;;;;6.64;77.73;99758.44;135353;1251;106569;-80
2023/12/31 13:47:47;;;;;;;29.10;17.30;;;;;;;6.62;77.68;99755.65;135197;1251;107615;-80
2023/12/31 13:50:52;;;;;;;30.00;17.30;;;;;;;6.58;77.65;99756.57;135205;1253;106497;-82
2023/12/31 13:53:58;;;;;;;29.20;16.40;;;;;;;6.51;77.91;99754.23;135213;1252;107841;-80
2023/12/31 13:57:04;;;;;;;32.40;17.40;;;;;;;6.44;77.79;99751.52;135179;1252;107525;-81
2023/12/31 14:00:12;;;;;;;36.00;18.40;;;;;;;6.36;78.02;99746.36;135167;1252;108609;-80
2023/12/31 14:03:18;;;;;;;32.70;17.80;;;;;;;6.27;77.80;99741.15;135167;1252;108573;-80